sensor_id;sensor_type;location;lat;lon;timestamp;temperature;humidity
39189;DHT22;24915;50.858;4.376;2023-10-13T00:00:29;18.40;99.90
39189;DHT22;24915;50.858;4.376;2023-10-13T00:02:57;18.40;99.90
39189;DHT22;24915;50.858;4.376;2023-10-13T00:05:29;18.40;99.90
39189;DHT22;24915;50.858;4.376;2023-10-13T00:08:02;18.40;99.90
39189;DHT22;24915;50.858;4.376;2023-10-13T00:10:29;18.40;99.90
39189;DHT22;24915;50.858;4.376;2023-10-13T00:12:55;18.40;99.90
39189;DHT22;24915;50.858;4.376;2023-10-13T00:15:32;18.40;99.90
39189;DHT22;24915;50.858;4.376;2023-10-13T00:18:05;18.40;99.90
39189;DHT22;24915;50.858;4.376;2023-10-13T00:20:39;18.30;99.90
39189;DHT22;24915;50.858;4.376;2023-10-13T00:23:05;18.40;99.90
39189;DHT22;24915;50.858;4.376;2023-10-13T00:25:32;18.40;99.90
39189;DHT22;24915;50.858;4.376;2023-10-13T00:28:05;18.40;99.90
39189;DHT22;24915;50.858;4.376;2023-10-13T00:30:34;18.40;99.90
39189;DHT22;24915;50.858;4.376;2023-10-13T00:33:00;18.50;99.90
39189;DHT22;24915;50.858;4.376;2023-10-13T00:35:27;18.50;99.90
39189;DHT22;24915;50.858;4.376;2023-10-13T00:38:06;18.50;99.90
39189;DHT22;24915;50.858;4.376;2023-10-13T00:40:45;18.40;99.90
39189;DHT22;24915;50.858;4.376;2023-10-13T00:43:20;18.40;99.90
39189;DHT22;24915;50.858;4.376;2023-10-13T00:45:57;18.40;99.90
39189;DHT22;24915;50.858;4.376;2023-10-13T00:48:28;18.50;99.90
39189;DHT22;24915;50.858;4.376;2023-10-13T00:51:03;18.50;99.90
39189;DHT22;24915;50.858;4.376;2023-10-13T00:53:35;18.40;99.90
39189;DHT22;24915;50.858;4.376;2023-10-13T00:56:06;18.40;99.90
39189;DHT22;24915;50.858;4.376;2023-10-13T00:58:34;18.40;99.90
39189;DHT22;24915;50.858;4.376;2023-10-13T01:01:03;18.40;99.90
39189;DHT22;24915;50.858;4.376;2023-10-13T01:03:54;18.40;99.90
39189;DHT22;24915;50.858;4.376;2023-10-13T01:06:28;18.40;99.90
39189;DHT22;24915;50.858;4.376;2023-10-13T01:09:05;18.40;99.90
39189;DHT22;24915;50.858;4.376;2023-10-13T01:11:57;18.40;99.90
39189;DHT22;24915;50.858;4.376;2023-10-13T01:14:26;18.40;99.90
39189;DHT22;24915;50.858;4.376;2023-10-13T01:16:54;18.40;99.90
39189;DHT22;24915;50.858;4.376;2023-10-13T01:19:20;18.40;99.90
39189;DHT22;24915;50.858;4.376;2023-10-13T01:21:53;18.40;99.90
39189;DHT22;24915;50.858;4.376;2023-10-13T01:24:27;18.40;99.90
39189;DHT22;24915;50.858;4.376;2023-10-13T01:26:57;18.40;99.90
39189;DHT22;24915;50.858;4.376;2023-10-13T01:29:23;18.40;99.90
39189;DHT22;24915;50.858;4.376;2023-10-13T01:31:54;18.40;99.90
39189;DHT22;24915;50.858;4.376;2023-10-13T01:34:20;18.40;99.90
39189;DHT22;24915;50.858;4.376;2023-10-13T01:36:49;18.40;99.90
39189;DHT22;24915;50.858;4.376;2023-10-13T01:39:23;18.40;99.90
39189;DHT22;24915;50.858;4.376;2023-10-13T01:41:52;18.40;99.90
39189;DHT22;24915;50.858;4.376;2023-10-13T01:44:27;18.40;99.90
39189;DHT22;24915;50.858;4.376;2023-10-13T01:46:56;18.40;99.90
39189;DHT22;24915;50.858;4.376;2023-10-13T01:49:25;18.40;99.90
39189;DHT22;24915;50.858;4.376;2023-10-13T01:51:51;18.40;99.90
39189;DHT22;24915;50.858;4.376;2023-10-13T01:54:17;18.50;99.90
39189;DHT22;24915;50.858;4.376;2023-10-13T01:56:43;18.40;99.90
39189;DHT22;24915;50.858;4.376;2023-10-13T01:59:12;18.40;99.90
39189;DHT22;24915;50.858;4.376;2023-10-13T02:01:38;18.40;99.90
39189;DHT22;24915;50.858;4.376;2023-10-13T02:04:05;18.50;99.90
39189;DHT22;24915;50.858;4.376;2023-10-13T02:06:34;18.50;99.90
39189;DHT22;24915;50.858;4.376;2023-10-13T02:09:07;18.50;99.90
39189;DHT22;24915;50.858;4.376;2023-10-13T02:11:43;18.50;99.90
39189;DHT22;24915;50.858;4.376;2023-10-13T02:14:11;18.50;99.90
39189;DHT22;24915;50.858;4.376;2023-10-13T02:16:38;18.50;99.90
39189;DHT22;24915;50.858;4.376;2023-10-13T02:19:04;18.50;99.90
39189;DHT22;24915;50.858;4.376;2023-10-13T02:21:34;18.50;99.90
39189;DHT22;24915;50.858;4.376;2023-10-13T02:24:06;18.50;99.90
39189;DHT22;24915;50.858;4.376;2023-10-13T02:26:38;18.50;99.90
39189;DHT22;24915;50.858;4.376;2023-10-13T02:29:05;18.50;99.90
39189;DHT22;24915;50.858;4.376;2023-10-13T02:31:38;18.50;99.90
39189;DHT22;24915;50.858;4.376;2023-10-13T02:34:05;18.50;99.90
39189;DHT22;24915;50.858;4.376;2023-10-13T02:36:37;18.50;99.90
39189;DHT22;24915;50.858;4.376;2023-10-13T02:39:12;18.50;99.90
39189;DHT22;24915;50.858;4.376;2023-10-13T02:41:39;18.50;99.90
39189;DHT22;24915;50.858;4.376;2023-10-13T02:44:07;18.50;99.90
39189;DHT22;24915;50.858;4.376;2023-10-13T02:46:34;18.60;99.90
39189;DHT22;24915;50.858;4.376;2023-10-13T02:49:05;18.60;99.90
39189;DHT22;24915;50.858;4.376;2023-10-13T02:51:40;18.60;99.90
39189;DHT22;24915;50.858;4.376;2023-10-13T02:54:08;18.60;99.90
39189;DHT22;24915;50.858;4.376;2023-10-13T02:56:44;18.60;99.90
39189;DHT22;24915;50.858;4.376;2023-10-13T02:59:16;18.60;99.90
39189;DHT22;24915;50.858;4.376;2023-10-13T03:01:45;18.60;99.90
39189;DHT22;24915;50.858;4.376;2023-10-13T03:04:10;18.50;99.90
39189;DHT22;24915;50.858;4.376;2023-10-13T03:06:38;18.60;99.90
39189;DHT22;24915;50.858;4.376;2023-10-13T03:09:08;18.60;99.90
39189;DHT22;24915;50.858;4.376;2023-10-13T03:11:47;18.60;99.90
39189;DHT22;24915;50.858;4.376;2023-10-13T03:14:23;18.60;99.90
39189;DHT22;24915;50.858;4.376;2023-10-13T03:16:57;18.60;99.90
39189;DHT22;24915;50.858;4.376;2023-10-13T03:19:34;18.60;99.90
39189;DHT22;24915;50.858;4.376;2023-10-13T03:22:03;18.60;99.90
39189;DHT22;24915;50.858;4.376;2023-10-13T03:24:40;18.60;99.90
39189;DHT22;24915;50.858;4.376;2023-10-13T03:27:16;18.60;99.90
39189;DHT22;24915;50.858;4.376;2023-10-13T03:29:44;18.60;99.90
39189;DHT22;24915;50.858;4.376;2023-10-13T03:32:15;18.60;99.90
39189;DHT22;24915;50.858;4.376;2023-10-13T03:34:45;18.50;99.90
39189;DHT22;24915;50.858;4.376;2023-10-13T03:37:36;18.60;99.90
39189;DHT22;24915;50.858;4.376;2023-10-13T03:40:10;18.60;99.90
39189;DHT22;24915;50.858;4.376;2023-10-13T03:42:45;18.60;99.90
39189;DHT22;24915;50.858;4.376;2023-10-13T03:45:24;18.60;99.90
39189;DHT22;24915;50.858;4.376;2023-10-13T03:47:51;18.50;99.90
39189;DHT22;24915;50.858;4.376;2023-10-13T03:50:18;18.50;99.90
39189;DHT22;24915;50.858;4.376;2023-10-13T03:52:55;18.50;99.90
39189;DHT22;24915;50.858;4.376;2023-10-13T03:55:27;18.50;99.90
39189;DHT22;24915;50.858;4.376;2023-10-13T03:57:54;18.50;99.90
39189;DHT22;24915;50.858;4.376;2023-10-13T04:00:21;18.50;99.90
39189;DHT22;24915;50.858;4.376;2023-10-13T04:02:49;18.50;99.90
39189;DHT22;24915;50.858;4.376;2023-10-13T04:05:33;18.50;99.90
39189;DHT22;24915;50.858;4.376;2023-10-13T04:08:05;18.50;99.90
39189;DHT22;24915;50.858;4.376;2023-10-13T04:10:51;18.50;99.90
39189;DHT22;24915;50.858;4.376;2023-10-13T04:13:17;18.50;99.90
39189;DHT22;24915;50.858;4.376;2023-10-13T04:16:01;18.50;99.90
39189;DHT22;24915;50.858;4.376;2023-10-13T04:18:45;18.50;99.90
39189;DHT22;24915;50.858;4.376;2023-10-13T04:21:31;18.50;99.90
39189;DHT22;24915;50.858;4.376;2023-10-13T04:24:08;18.50;99.90
39189;DHT22;24915;50.858;4.376;2023-10-13T04:26:49;18.50;99.90
39189;DHT22;24915;50.858;4.376;2023-10-13T04:29:44;18.50;99.90
39189;DHT22;24915;50.858;4.376;2023-10-13T04:32:16;18.50;99.90
39189;DHT22;24915;50.858;4.376;2023-10-13T04:34:57;18.50;99.90
39189;DHT22;24915;50.858;4.376;2023-10-13T04:37:37;18.40;99.90
39189;DHT22;24915;50.858;4.376;2023-10-13T04:40:21;18.50;99.90
39189;DHT22;24915;50.858;4.376;2023-10-13T04:42:51;18.50;99.90
39189;DHT22;24915;50.858;4.376;2023-10-13T04:45:25;18.50;99.90
39189;DHT22;24915;50.858;4.376;2023-10-13T04:47:57;18.50;99.90
39189;DHT22;24915;50.858;4.376;2023-10-13T04:50:24;18.50;99.90
39189;DHT22;24915;50.858;4.376;2023-10-13T04:53:00;18.50;99.90
39189;DHT22;24915;50.858;4.376;2023-10-13T04:55:39;18.50;99.90
39189;DHT22;24915;50.858;4.376;2023-10-13T04:58:25;18.50;99.90
39189;DHT22;24915;50.858;4.376;2023-10-13T05:01:11;18.50;99.90
39189;DHT22;24915;50.858;4.376;2023-10-13T05:03:49;18.50;99.90
39189;DHT22;24915;50.858;4.376;2023-10-13T05:06:31;18.50;99.90
39189;DHT22;24915;50.858;4.376;2023-10-13T05:09:10;18.50;99.90
39189;DHT22;24915;50.858;4.376;2023-10-13T05:11:54;18.50;99.90
39189;DHT22;24915;50.858;4.376;2023-10-13T05:14:39;18.60;99.90
39189;DHT22;24915;50.858;4.376;2023-10-13T05:17:23;18.60;99.90
39189;DHT22;24915;50.858;4.376;2023-10-13T05:20:08;18.60;99.90
39189;DHT22;24915;50.858;4.376;2023-10-13T05:22:52;18.60;99.90
39189;DHT22;24915;50.858;4.376;2023-10-13T05:25:37;18.60;99.90
39189;DHT22;24915;50.858;4.376;2023-10-13T05:28:22;18.60;99.90
39189;DHT22;24915;50.858;4.376;2023-10-13T05:31:09;18.70;99.90
39189;DHT22;24915;50.858;4.376;2023-10-13T05:33:54;18.70;99.90
39189;DHT22;24915;50.858;4.376;2023-10-13T05:36:38;18.70;99.90
39189;DHT22;24915;50.858;4.376;2023-10-13T05:39:23;18.70;99.90
39189;DHT22;24915;50.858;4.376;2023-10-13T05:42:07;18.70;99.90
39189;DHT22;24915;50.858;4.376;2023-10-13T05:44:52;18.70;99.90
39189;DHT22;24915;50.858;4.376;2023-10-13T05:47:36;18.70;99.90
39189;DHT22;24915;50.858;4.376;2023-10-13T05:50:11;18.70;99.90
39189;DHT22;24915;50.858;4.376;2023-10-13T05:52:49;18.70;99.90
39189;DHT22;24915;50.858;4.376;2023-10-13T05:55:28;18.70;99.90
39189;DHT22;24915;50.858;4.376;2023-10-13T05:58:13;18.70;99.90
39189;DHT22;24915;50.858;4.376;2023-10-13T06:00:57;18.70;99.90
39189;DHT22;24915;50.858;4.376;2023-10-13T06:03:42;18.70;99.90
39189;DHT22;24915;50.858;4.376;2023-10-13T06:06:27;18.70;99.90
39189;DHT22;24915;50.858;4.376;2023-10-13T06:09:11;18.70;99.90
39189;DHT22;24915;50.858;4.376;2023-10-13T06:11:55;18.80;99.90
39189;DHT22;24915;50.858;4.376;2023-10-13T06:14:39;18.80;99.90
39189;DHT22;24915;50.858;4.376;2023-10-13T06:17:23;18.80;99.90
39189;DHT22;24915;50.858;4.376;2023-10-13T06:20:08;18.80;99.90
39189;DHT22;24915;50.858;4.376;2023-10-13T06:22:53;18.80;99.90
39189;DHT22;24915;50.858;4.376;2023-10-13T06:25:37;18.80;99.90
39189;DHT22;24915;50.858;4.376;2023-10-13T06:28:22;18.90;99.90
39189;DHT22;24915;50.858;4.376;2023-10-13T06:31:06;18.90;99.90
39189;DHT22;24915;50.858;4.376;2023-10-13T06:33:35;19.00;99.90
39189;DHT22;24915;50.858;4.376;2023-10-13T06:36:05;19.00;99.90
39189;DHT22;24915;50.858;4.376;2023-10-13T06:38:37;19.00;99.90
39189;DHT22;24915;50.858;4.376;2023-10-13T06:41:07;19.10;99.90
39189;DHT22;24915;50.858;4.376;2023-10-13T06:43:34;19.10;99.90
39189;DHT22;24915;50.858;4.376;2023-10-13T06:46:09;19.10;99.90
39189;DHT22;24915;50.858;4.376;2023-10-13T06:48:41;19.20;99.90
39189;DHT22;24915;50.858;4.376;2023-10-13T06:51:08;19.30;99.90
39189;DHT22;24915;50.858;4.376;2023-10-13T06:53:46;19.30;99.90
39189;DHT22;24915;50.858;4.376;2023-10-13T06:56:17;19.30;99.90
39189;DHT22;24915;50.858;4.376;2023-10-13T06:58:51;19.40;99.90
39189;DHT22;24915;50.858;4.376;2023-10-13T07:01:17;19.40;99.90
39189;DHT22;24915;50.858;4.376;2023-10-13T07:03:47;19.40;99.90
39189;DHT22;24915;50.858;4.376;2023-10-13T07:06:21;19.40;99.90
39189;DHT22;24915;50.858;4.376;2023-10-13T07:08:48;19.40;99.90
39189;DHT22;24915;50.858;4.376;2023-10-13T07:11:25;19.50;99.90
39189;DHT22;24915;50.858;4.376;2023-10-13T07:14:04;19.50;99.90
39189;DHT22;24915;50.858;4.376;2023-10-13T07:16:42;19.50;99.90
39189;DHT22;24915;50.858;4.376;2023-10-13T07:19:12;19.60;99.90
39189;DHT22;24915;50.858;4.376;2023-10-13T07:21:44;19.50;99.90
39189;DHT22;24915;50.858;4.376;2023-10-13T07:24:12;19.60;99.90
39189;DHT22;24915;50.858;4.376;2023-10-13T07:26:39;19.70;99.90
39189;DHT22;24915;50.858;4.376;2023-10-13T07:29:09;19.70;99.90
39189;DHT22;24915;50.858;4.376;2023-10-13T07:31:35;19.80;99.90
39189;DHT22;24915;50.858;4.376;2023-10-13T07:34:04;19.80;99.90
39189;DHT22;24915;50.858;4.376;2023-10-13T07:36:39;19.90;99.90
39189;DHT22;24915;50.858;4.376;2023-10-13T07:39:05;19.90;99.90
39189;DHT22;24915;50.858;4.376;2023-10-13T07:41:48;19.90;99.90
39189;DHT22;24915;50.858;4.376;2023-10-13T07:44:23;19.90;99.90
39189;DHT22;24915;50.858;4.376;2023-10-13T07:46:54;19.90;99.90
39189;DHT22;24915;50.858;4.376;2023-10-13T07:49:33;19.90;99.90
39189;DHT22;24915;50.858;4.376;2023-10-13T07:52:02;20.00;99.90
39189;DHT22;24915;50.858;4.376;2023-10-13T07:54:54;20.00;99.90
39189;DHT22;24915;50.858;4.376;2023-10-13T07:57:45;20.10;99.90
39189;DHT22;24915;50.858;4.376;2023-10-13T08:00:24;20.10;99.90
39189;DHT22;24915;50.858;4.376;2023-10-13T08:03:08;20.10;99.90
39189;DHT22;24915;50.858;4.376;2023-10-13T08:05:41;20.20;99.90
39189;DHT22;24915;50.858;4.376;2023-10-13T08:08:27;20.20;99.90
39189;DHT22;24915;50.858;4.376;2023-10-13T08:11:01;20.30;99.90
39189;DHT22;24915;50.858;4.376;2023-10-13T08:13:35;20.40;99.90
39189;DHT22;24915;50.858;4.376;2023-10-13T08:16:03;20.40;99.90
39189;DHT22;24915;50.858;4.376;2023-10-13T08:18:35;20.50;99.90
39189;DHT22;24915;50.858;4.376;2023-10-13T08:21:02;20.50;99.90
39189;DHT22;24915;50.858;4.376;2023-10-13T08:23:32;20.50;99.90
39189;DHT22;24915;50.858;4.376;2023-10-13T08:26:16;20.60;99.90
39189;DHT22;24915;50.858;4.376;2023-10-13T08:29:00;20.60;99.90
39189;DHT22;24915;50.858;4.376;2023-10-13T08:31:47;20.60;99.90
39189;DHT22;24915;50.858;4.376;2023-10-13T08:34:42;20.50;99.90
39189;DHT22;24915;50.858;4.376;2023-10-13T08:37:12;20.60;99.90
39189;DHT22;24915;50.858;4.376;2023-10-13T08:39:51;20.60;99.90
39189;DHT22;24915;50.858;4.376;2023-10-13T08:42:34;20.60;99.90
39189;DHT22;24915;50.858;4.376;2023-10-13T08:45:08;20.70;99.90
39189;DHT22;24915;50.858;4.376;2023-10-13T08:47:50;20.80;99.90
39189;DHT22;24915;50.858;4.376;2023-10-13T08:50:46;20.80;99.90
39189;DHT22;24915;50.858;4.376;2023-10-13T08:53:28;20.80;99.90
39189;DHT22;24915;50.858;4.376;2023-10-13T08:56:14;20.80;99.90
39189;DHT22;24915;50.858;4.376;2023-10-13T08:58:41;20.80;99.90
39189;DHT22;24915;50.858;4.376;2023-10-13T09:01:30;20.80;99.90
39189;DHT22;24915;50.858;4.376;2023-10-13T09:04:09;20.90;99.90
39189;DHT22;24915;50.858;4.376;2023-10-13T09:15:08;20.90;99.90
39189;DHT22;24915;50.858;4.376;2023-10-13T09:17:49;20.80;99.90
39189;DHT22;24915;50.858;4.376;2023-10-13T09:20:39;20.90;99.90
39189;DHT22;24915;50.858;4.376;2023-10-13T09:23:14;20.90;99.90
39189;DHT22;24915;50.858;4.376;2023-10-13T09:25:51;21.00;99.90
39189;DHT22;24915;50.858;4.376;2023-10-13T09:28:23;21.10;99.90
39189;DHT22;24915;50.858;4.376;2023-10-13T09:30:53;21.10;99.90
39189;DHT22;24915;50.858;4.376;2023-10-13T09:33:20;21.10;99.90
39189;DHT22;24915;50.858;4.376;2023-10-13T09:35:54;21.10;99.90
39189;DHT22;24915;50.858;4.376;2023-10-13T09:38:20;21.20;99.90
39189;DHT22;24915;50.858;4.376;2023-10-13T09:40:46;21.20;99.90
39189;DHT22;24915;50.858;4.376;2023-10-13T09:43:18;21.20;99.90
39189;DHT22;24915;50.858;4.376;2023-10-13T09:45:48;21.30;99.90
39189;DHT22;24915;50.858;4.376;2023-10-13T09:48:36;21.30;99.90
39189;DHT22;24915;50.858;4.376;2023-10-13T09:51:12;21.40;99.90
39189;DHT22;24915;50.858;4.376;2023-10-13T09:53:40;21.40;99.90
39189;DHT22;24915;50.858;4.376;2023-10-13T09:56:47;21.40;99.90
39189;DHT22;24915;50.858;4.376;2023-10-13T09:59:19;21.50;99.90
39189;DHT22;24915;50.858;4.376;2023-10-13T10:01:48;21.50;99.90
39189;DHT22;24915;50.858;4.376;2023-10-13T10:04:22;21.60;99.90
39189;DHT22;24915;50.858;4.376;2023-10-13T10:06:59;21.60;99.90
39189;DHT22;24915;50.858;4.376;2023-10-13T10:09:31;21.70;99.90
39189;DHT22;24915;50.858;4.376;2023-10-13T10:17:28;21.80;99.90
39189;DHT22;24915;50.858;4.376;2023-10-13T10:19:56;21.80;99.90
39189;DHT22;24915;50.858;4.376;2023-10-13T10:22:29;21.90;99.90
39189;DHT22;24915;50.858;4.376;2023-10-13T10:25:14;21.90;99.90
39189;DHT22;24915;50.858;4.376;2023-10-13T10:27:59;22.00;99.90
39189;DHT22;24915;50.858;4.376;2023-10-13T10:30:29;22.10;99.90
39189;DHT22;24915;50.858;4.376;2023-10-13T10:32:58;22.10;99.90
39189;DHT22;24915;50.858;4.376;2023-10-13T10:35:34;22.10;99.90
39189;DHT22;24915;50.858;4.376;2023-10-13T10:38:13;22.20;99.90
39189;DHT22;24915;50.858;4.376;2023-10-13T10:41:06;22.10;99.90
39189;DHT22;24915;50.858;4.376;2023-10-13T10:46:17;22.20;99.90
39189;DHT22;24915;50.858;4.376;2023-10-13T10:48:42;22.30;99.90
39189;DHT22;24915;50.858;4.376;2023-10-13T10:51:14;22.40;99.90
39189;DHT22;24915;50.858;4.376;2023-10-13T10:53:50;22.70;99.90
39189;DHT22;24915;50.858;4.376;2023-10-13T10:56:18;22.80;99.90
39189;DHT22;24915;50.858;4.376;2023-10-13T10:58:57;22.90;99.90
39189;DHT22;24915;50.858;4.376;2023-10-13T11:01:24;23.00;99.90
39189;DHT22;24915;50.858;4.376;2023-10-13T11:03:59;23.00;99.90
39189;DHT22;24915;50.858;4.376;2023-10-13T11:06:26;23.10;99.90
39189;DHT22;24915;50.858;4.376;2023-10-13T11:09:03;23.00;99.90
39189;DHT22;24915;50.858;4.376;2023-10-13T11:11:30;23.00;99.90
39189;DHT22;24915;50.858;4.376;2023-10-13T11:14:01;23.00;99.90
39189;DHT22;24915;50.858;4.376;2023-10-13T11:16:50;23.10;99.90
39189;DHT22;24915;50.858;4.376;2023-10-13T11:19:40;23.20;99.90
39189;DHT22;24915;50.858;4.376;2023-10-13T11:24:56;23.40;99.90
39189;DHT22;24915;50.858;4.376;2023-10-13T11:27:33;23.50;99.90
39189;DHT22;24915;50.858;4.376;2023-10-13T11:30:11;23.50;99.90
39189;DHT22;24915;50.858;4.376;2023-10-13T11:32:58;23.50;99.90
39189;DHT22;24915;50.858;4.376;2023-10-13T11:35:24;23.50;99.90
39189;DHT22;24915;50.858;4.376;2023-10-13T11:37:50;23.50;99.90
39189;DHT22;24915;50.858;4.376;2023-10-13T11:40:25;23.50;99.90
39189;DHT22;24915;50.858;4.376;2023-10-13T11:43:10;23.50;99.90
39189;DHT22;24915;50.858;4.376;2023-10-13T11:45:47;23.60;99.90
39189;DHT22;24915;50.858;4.376;2023-10-13T11:48:32;23.70;99.90
39189;DHT22;24915;50.858;4.376;2023-10-13T11:51:06;23.70;99.90
39189;DHT22;24915;50.858;4.376;2023-10-13T11:53:35;23.80;99.90
39189;DHT22;24915;50.858;4.376;2023-10-13T11:56:02;23.70;99.90
39189;DHT22;24915;50.858;4.376;2023-10-13T11:58:37;23.60;99.90
39189;DHT22;24915;50.858;4.376;2023-10-13T12:01:03;23.70;99.90
39189;DHT22;24915;50.858;4.376;2023-10-13T12:03:39;23.70;99.90
39189;DHT22;24915;50.858;4.376;2023-10-13T12:06:23;23.60;99.90
39189;DHT22;24915;50.858;4.376;2023-10-13T12:09:07;23.60;99.90
39189;DHT22;24915;50.858;4.376;2023-10-13T12:11:40;23.50;99.90
39189;DHT22;24915;50.858;4.376;2023-10-13T12:14:08;23.50;99.90
39189;DHT22;24915;50.858;4.376;2023-10-13T12:16:49;23.40;99.90
39189;DHT22;24915;50.858;4.376;2023-10-13T12:19:20;23.30;99.90
39189;DHT22;24915;50.858;4.376;2023-10-13T12:21:55;23.30;99.90
39189;DHT22;24915;50.858;4.376;2023-10-13T12:24:27;23.30;99.90
39189;DHT22;24915;50.858;4.376;2023-10-13T12:27:06;23.20;99.90
39189;DHT22;24915;50.858;4.376;2023-10-13T12:29:51;23.10;99.90
39189;DHT22;24915;50.858;4.376;2023-10-13T12:32:18;23.10;99.90
39189;DHT22;24915;50.858;4.376;2023-10-13T12:34:56;23.00;99.90
39189;DHT22;24915;50.858;4.376;2023-10-13T12:37:26;23.00;99.90
39189;DHT22;24915;50.858;4.376;2023-10-13T12:40:22;23.00;99.90
39189;DHT22;24915;50.858;4.376;2023-10-13T12:43:07;22.90;99.90
39189;DHT22;24915;50.858;4.376;2023-10-13T12:45:51;22.90;99.90
39189;DHT22;24915;50.858;4.376;2023-10-13T12:48:37;22.90;99.90
39189;DHT22;24915;50.858;4.376;2023-10-13T12:51:29;22.80;99.90
39189;DHT22;24915;50.858;4.376;2023-10-13T12:53:58;22.90;99.90
39189;DHT22;24915;50.858;4.376;2023-10-13T12:56:39;22.90;99.90
39189;DHT22;24915;50.858;4.376;2023-10-13T12:59:08;22.90;99.90
39189;DHT22;24915;50.858;4.376;2023-10-13T13:01:34;22.90;99.90
39189;DHT22;24915;50.858;4.376;2023-10-13T13:04:00;22.90;99.90
39189;DHT22;24915;50.858;4.376;2023-10-13T13:06:29;23.00;99.90
39189;DHT22;24915;50.858;4.376;2023-10-13T13:08:57;23.00;99.90
39189;DHT22;24915;50.858;4.376;2023-10-13T13:11:23;23.00;99.90
39189;DHT22;24915;50.858;4.376;2023-10-13T13:13:49;23.00;99.90
39189;DHT22;24915;50.858;4.376;2023-10-13T13:16:19;23.00;99.90
39189;DHT22;24915;50.858;4.376;2023-10-13T13:18:49;23.00;99.90
39189;DHT22;24915;50.858;4.376;2023-10-13T13:21:15;23.00;99.90
39189;DHT22;24915;50.858;4.376;2023-10-13T13:23:48;23.00;99.90
39189;DHT22;24915;50.858;4.376;2023-10-13T13:26:14;22.90;99.90
39189;DHT22;24915;50.858;4.376;2023-10-13T13:28:46;22.90;99.90
39189;DHT22;24915;50.858;4.376;2023-10-13T13:31:20;22.90;99.90
39189;DHT22;24915;50.858;4.376;2023-10-13T13:33:51;22.90;99.90
39189;DHT22;24915;50.858;4.376;2023-10-13T13:36:17;22.90;99.90
39189;DHT22;24915;50.858;4.376;2023-10-13T13:38:43;22.90;99.90
39189;DHT22;24915;50.858;4.376;2023-10-13T13:41:15;23.00;99.90
39189;DHT22;24915;50.858;4.376;2023-10-13T13:43:50;23.20;99.90
39189;DHT22;24915;50.858;4.376;2023-10-13T13:46:21;23.40;99.90
39189;DHT22;24915;50.858;4.376;2023-10-13T13:48:53;23.50;99.90
39189;DHT22;24915;50.858;4.376;2023-10-13T13:51:27;23.50;99.90
39189;DHT22;24915;50.858;4.376;2023-10-13T13:53:54;23.60;99.90
39189;DHT22;24915;50.858;4.376;2023-10-13T13:56:20;23.50;99.90
39189;DHT22;24915;50.858;4.376;2023-10-13T13:58:47;23.40;99.90
39189;DHT22;24915;50.858;4.376;2023-10-13T14:01:13;23.30;99.90
39189;DHT22;24915;50.858;4.376;2023-10-13T14:03:41;23.30;99.90
39189;DHT22;24915;50.858;4.376;2023-10-13T14:06:14;23.20;99.90
39189;DHT22;24915;50.858;4.376;2023-10-13T14:08:58;23.10;99.90
39189;DHT22;24915;50.858;4.376;2023-10-13T14:11:58;23.00;99.90
39189;DHT22;24915;50.858;4.376;2023-10-13T14:14:42;23.00;99.90
39189;DHT22;24915;50.858;4.376;2023-10-13T14:17:14;23.00;99.90
39189;DHT22;24915;50.858;4.376;2023-10-13T14:19:40;23.00;99.90
39189;DHT22;24915;50.858;4.376;2023-10-13T14:22:06;23.00;99.90
39189;DHT22;24915;50.858;4.376;2023-10-13T14:24:34;23.00;99.90
39189;DHT22;24915;50.858;4.376;2023-10-13T14:27:02;23.00;99.90
39189;DHT22;24915;50.858;4.376;2023-10-13T14:29:35;22.90;99.90
39189;DHT22;24915;50.858;4.376;2023-10-13T14:32:08;22.90;99.90
39189;DHT22;24915;50.858;4.376;2023-10-13T14:34:42;22.80;99.90
39189;DHT22;24915;50.858;4.376;2023-10-13T14:37:08;22.80;99.90
39189;DHT22;24915;50.858;4.376;2023-10-13T14:39:38;22.80;99.90
39189;DHT22;24915;50.858;4.376;2023-10-13T14:42:04;22.80;99.90
39189;DHT22;24915;50.858;4.376;2023-10-13T14:44:33;22.70;99.90
39189;DHT22;24915;50.858;4.376;2023-10-13T14:47:00;22.70;99.90
39189;DHT22;24915;50.858;4.376;2023-10-13T14:49:26;22.60;99.90
39189;DHT22;24915;50.858;4.376;2023-10-13T14:51:52;22.60;99.90
39189;DHT22;24915;50.858;4.376;2023-10-13T14:54:20;22.50;99.90
39189;DHT22;24915;50.858;4.376;2023-10-13T14:57:02;22.50;99.90
39189;DHT22;24915;50.858;4.376;2023-10-13T14:59:28;22.50;99.90
39189;DHT22;24915;50.858;4.376;2023-10-13T15:01:59;22.40;99.90
39189;DHT22;24915;50.858;4.376;2023-10-13T15:04:26;22.40;99.90
39189;DHT22;24915;50.858;4.376;2023-10-13T15:06:54;22.30;99.90
39189;DHT22;24915;50.858;4.376;2023-10-13T15:09:21;22.30;99.90
39189;DHT22;24915;50.858;4.376;2023-10-13T15:11:49;22.20;99.90
39189;DHT22;24915;50.858;4.376;2023-10-13T15:14:19;22.20;99.90
39189;DHT22;24915;50.858;4.376;2023-10-13T15:16:46;22.20;99.90
39189;DHT22;24915;50.858;4.376;2023-10-13T15:19:11;22.10;99.90
39189;DHT22;24915;50.858;4.376;2023-10-13T15:21:37;22.10;99.90
39189;DHT22;24915;50.858;4.376;2023-10-13T15:24:06;22.10;99.90
39189;DHT22;24915;50.858;4.376;2023-10-13T15:26:46;22.10;99.90
39189;DHT22;24915;50.858;4.376;2023-10-13T15:29:18;22.00;99.90
39189;DHT22;24915;50.858;4.376;2023-10-13T15:31:47;22.00;99.90
39189;DHT22;24915;50.858;4.376;2023-10-13T15:34:24;21.90;99.90
39189;DHT22;24915;50.858;4.376;2023-10-13T15:36:53;21.90;99.90
39189;DHT22;24915;50.858;4.376;2023-10-13T15:39:20;21.70;99.90
39189;DHT22;24915;50.858;4.376;2023-10-13T15:41:52;21.70;99.90
39189;DHT22;24915;50.858;4.376;2023-10-13T15:44:19;21.60;99.90
39189;DHT22;24915;50.858;4.376;2023-10-13T15:46:54;21.70;99.90
39189;DHT22;24915;50.858;4.376;2023-10-13T15:49:21;21.70;99.90
39189;DHT22;24915;50.858;4.376;2023-10-13T15:51:47;21.70;99.90
39189;DHT22;24915;50.858;4.376;2023-10-13T15:54:13;21.70;99.90
39189;DHT22;24915;50.858;4.376;2023-10-13T15:56:45;21.70;99.90
39189;DHT22;24915;50.858;4.376;2023-10-13T15:59:12;21.70;99.90
39189;DHT22;24915;50.858;4.376;2023-10-13T16:01:38;21.80;99.90
39189;DHT22;24915;50.858;4.376;2023-10-13T16:04:09;21.70;99.90
39189;DHT22;24915;50.858;4.376;2023-10-13T16:06:43;21.70;99.90
39189;DHT22;24915;50.858;4.376;2023-10-13T16:09:16;21.70;99.90
39189;DHT22;24915;50.858;4.376;2023-10-13T16:11:49;21.70;99.90
39189;DHT22;24915;50.858;4.376;2023-10-13T16:14:15;21.80;99.90
39189;DHT22;24915;50.858;4.376;2023-10-13T16:16:44;21.80;99.90
39189;DHT22;24915;50.858;4.376;2023-10-13T16:19:18;21.70;99.90
39189;DHT22;24915;50.858;4.376;2023-10-13T16:21:49;21.60;99.90
39189;DHT22;24915;50.858;4.376;2023-10-13T16:24:14;21.40;99.90
39189;DHT22;24915;50.858;4.376;2023-10-13T16:26:50;21.00;99.90
39189;DHT22;24915;50.858;4.376;2023-10-13T16:29:18;20.90;99.90
39189;DHT22;24915;50.858;4.376;2023-10-13T16:31:45;20.90;99.90